Time,TemperatureF,DewpointF,PressureIn,WindDirection,WindDirectionDegrees,WindSpeedMPH,WindSpeedGustMPH,Humidity,HourlyPrecipIn,Conditions,Clouds,dailyrainin,SoftwareType,DateUTC
2013-02-07 00:01:00,67.0,65.0,29.94,ENE,59,2.0,5.0,93,0.15,,,0.34,,2013-02-07 00:01:00,
2013-02-07 00:11:00,67.0,65.0,29.94,ENE,59,2.0,5.0,93,0.15,,,0.34,,2013-02-07 00:11:00,
2013-02-07 00:21:00,67.0,65.0,29.94,ENE,77,5.0,8.0,93,0.14,,,0.39,,2013-02-07 00:21:00,
2013-02-07 00:31:00,67.0,65.0,29.94,East,93,4.0,8.0,93,0.12,,,0.40,,2013-02-07 00:31:00,
2013-02-07 00:41:00,67.0,65.0,29.94,East,93,4.0,8.0,93,0.12,,,0.40,,2013-02-07 00:41:00,
2013-02-07 00:52:00,67.0,65.0,29.92,NE,47,6.0,12.0,93,0.14,,,0.45,,2013-02-07 00:52:00,
2013-02-07 01:01:00,67.0,65.0,29.91,East,99,5.0,12.0,93,0.11,,,0.46,,2013-02-07 01:01:00,
2013-02-07 01:11:00,67.0,65.0,29.91,East,99,5.0,12.0,93,0.11,,,0.46,,2013-02-07 01:11:00,
2013-02-07 01:21:00,67.0,65.0,29.92,NE,49,6.0,10.0,93,0.09,,,0.48,,2013-02-07 01:21:00,
2013-02-07 01:31:00,67.0,65.0,29.91,NE,55,6.0,12.0,93,0.07,,,0.48,,2013-02-07 01:31:00,
2013-02-07 01:41:00,67.0,65.0,29.91,NE,55,6.0,12.0,93,0.07,,,0.48,,2013-02-07 01:41:00,
2013-02-07 01:52:00,68.0,66.0,29.92,East,98,6.0,13.0,93,0.06,,,0.51,,2013-02-07 01:52:00,
2013-02-07 02:01:00,67.0,65.0,29.93,NE,51,4.0,9.0,93,0.07,,,0.53,,2013-02-07 02:01:00,
2013-02-07 02:11:00,67.0,65.0,29.93,NE,51,4.0,9.0,93,0.07,,,0.53,,2013-02-07 02:11:00,
2013-02-07 02:21:00,67.0,65.0,29.93,ESE,103,7.0,12.0,93,0.09,,,0.57,,2013-02-07 02:21:00,
2013-02-07 02:31:00,67.0,65.0,29.92,ENE,74,8.0,12.0,93,0.11,,,0.59,,2013-02-07 02:31:00,
2013-02-07 02:41:00,67.0,65.0,29.92,ENE,74,8.0,12.0,93,0.11,,,0.59,,2013-02-07 02:41:00,
2013-02-07 02:52:00,67.0,65.0,29.92,ENE,74,8.0,12.0,93,0.11,,,0.59,,2013-02-07 02:52:00,
2013-02-07 03:02:00,67.0,65.0,29.92,ENE,65,8.0,15.0,93,0.09,,,0.62,,2013-02-07 03:02:00,
2013-02-07 03:11:00,67.0,65.0,29.93,East,93,7.0,13.0,92,0.07,,,0.65,,2013-02-07 03:11:00,
2013-02-07 03:21:00,67.0,65.0,29.93,East,93,7.0,13.0,92,0.07,,,0.65,,2013-02-07 03:21:00,
2013-02-07 03:31:00,67.0,65.0,29.93,East,92,5.0,10.0,92,0.07,,,0.66,,2013-02-07 03:31:00,
2013-02-07 03:41:00,67.0,65.0,29.93,East,92,5.0,10.0,92,0.07,,,0.66,,2013-02-07 03:41:00,
2013-02-07 03:52:00,67.0,65.0,29.92,East,81,7.0,14.0,92,0.09,,,0.70,,2013-02-07 03:52:00,
2013-02-07 04:01:00,67.0,65.0,29.92,ESE,104,7.0,11.0,92,0.08,,,0.71,,2013-02-07 04:01:00,
2013-02-07 04:11:00,67.0,65.0,29.92,ESE,104,7.0,11.0,92,0.08,,,0.71,,2013-02-07 04:11:00,
2013-02-07 04:22:00,67.0,65.0,29.92,ESE,104,7.0,14.0,92,0.08,,,0.72,,2013-02-07 04:22:00,
2013-02-07 04:31:00,66.0,64.0,29.91,ESE,108,7.0,13.0,92,0.07,,,0.73,,2013-02-07 04:31:00,
2013-02-07 04:41:00,66.0,64.0,29.91,ESE,108,7.0,13.0,92,0.07,,,0.73,,2013-02-07 04:41:00,
2013-02-07 04:53:00,66.0,64.0,29.91,ESE,119,10.0,18.0,92,0.05,,,0.74,,2013-02-07 04:53:00,
2013-02-07 05:02:00,66.0,64.0,29.89,ESE,105,13.0,18.0,92,0.04,,,0.74,,2013-02-07 05:02:00,
2013-02-07 05:11:00,66.0,64.0,29.89,ESE,105,13.0,18.0,92,0.04,,,0.74,,2013-02-07 05:11:00,
2013-02-07 05:21:00,67.0,64.0,29.88,SE,136,14.0,23.0,91,0.03,,,0.75,,2013-02-07 05:21:00,
2013-02-07 05:32:00,67.0,64.0,29.88,East,98,10.0,17.0,91,0.02,,,0.75,,2013-02-07 05:32:00,
2013-02-07 05:42:00,67.0,64.0,29.88,East,98,10.0,17.0,91,0.02,,,0.75,,2013-02-07 05:42:00,
2013-02-07 05:52:00,66.0,63.0,29.87,East,86,10.0,18.0,91,0.04,,,0.78,,2013-02-07 05:52:00,
2013-02-07 06:02:00,66.0,63.0,29.87,East,101,10.0,15.0,91,0.04,,,0.78,,2013-02-07 06:02:00,
2013-02-07 06:11:00,66.0,63.0,29.87,East,101,10.0,15.0,91,0.04,,,0.78,,2013-02-07 06:11:00,
2013-02-07 06:22:00,66.0,63.0,29.84,East,92,13.0,21.0,91,0.08,,,0.83,,2013-02-07 06:22:00,
2013-02-07 06:31:00,66.0,63.0,29.85,ESE,106,11.0,19.0,91,0.09,,,0.84,,2013-02-07 06:31:00,
2013-02-07 06:43:00,66.0,63.0,29.85,ESE,106,11.0,19.0,91,0.09,,,0.84,,2013-02-07 06:43:00,
2013-02-07 06:52:00,66.0,63.0,29.85,East,89,11.0,18.0,91,0.07,,,0.85,,2013-02-07 06:52:00,
2013-02-07 07:01:00,66.0,63.0,29.85,NE,50,11.0,18.0,91,0.08,,,0.86,,2013-02-07 07:01:00,
2013-02-07 07:11:00,66.0,63.0,29.85,East,96,11.0,18.0,90,0.02,,,0.86,,2013-02-07 07:11:00,
2013-02-07 07:22:00,66.0,63.0,29.85,East,96,11.0,18.0,90,0.02,,,0.86,,2013-02-07 07:22:00,
2013-02-07 07:32:00,66.0,63.0,29.85,East,91,11.0,18.0,90,0.02,,,0.86,,2013-02-07 07:32:00,
2013-02-07 07:41:00,66.0,63.0,29.85,East,91,11.0,18.0,90,0.02,,,0.86,,2013-02-07 07:41:00,
2013-02-07 07:52:00,66.0,63.0,29.86,East,81,8.0,16.0,90,0.01,,,0.86,,2013-02-07 07:52:00,
2013-02-07 08:01:00,66.0,63.0,29.86,East,86,6.0,16.0,90,0.00,,,0.86,,2013-02-07 08:01:00,
2013-02-07 08:11:00,66.0,63.0,29.86,East,86,6.0,16.0,90,0.00,,,0.86,,2013-02-07 08:11:00,
2013-02-07 08:21:00,66.0,63.0,29.86,ENE,74,3.0,9.0,90,0.00,,,0.86,,2013-02-07 08:21:00,
2013-02-07 08:32:00,65.0,62.0,29.86,ENE,78,3.0,8.0,91,0.00,,,0.86,,2013-02-07 08:32:00,
2013-02-07 08:42:00,65.0,62.0,29.86,ENE,78,3.0,8.0,91,0.00,,,0.86,,2013-02-07 08:42:00,
2013-02-07 08:52:00,65.0,62.0,29.86,ENE,57,4.0,6.0,91,0.00,,,0.86,,2013-02-07 08:52:00,
2013-02-07 09:01:00,65.0,62.0,29.86,NE,46,3.0,5.0,91,0.00,,,0.86,,2013-02-07 09:01:00,
2013-02-07 09:11:00,64.0,61.0,29.85,NE,47,1.0,3.0,91,0.00,,,0.86,,2013-02-07 09:11:00,
2013-02-07 09:21:00,64.0,61.0,29.85,NE,47,1.0,3.0,91,0.00,,,0.86,,2013-02-07 09:21:00,
2013-02-07 09:31:00,64.0,61.0,29.84,NE,51,2.0,4.0,91,0.00,,,0.86,,2013-02-07 09:31:00,
2013-02-07 09:41:00,64.0,61.0,29.84,NE,51,2.0,4.0,91,0.00,,,0.86,,2013-02-07 09:41:00,
2013-02-07 09:52:00,63.0,60.0,29.83,NE,39,1.0,3.0,91,0.00,,,0.86,,2013-02-07 09:52:00,
2013-02-07 10:01:00,63.0,60.0,29.84,NE,39,0.0,2.0,91,0.00,,,0.86,,2013-02-07 10:01:00,
2013-02-07 10:11:00,63.0,60.0,29.84,NE,39,0.0,2.0,91,0.00,,,0.86,,2013-02-07 10:11:00,
2013-02-07 10:22:00,63.0,61.0,29.84,NE,41,2.0,3.0,92,0.00,,,0.86,,2013-02-07 10:22:00,
2013-02-07 10:32:00,63.0,61.0,29.85,NE,42,1.0,4.0,92,0.00,,,0.86,,2013-02-07 10:32:00,
2013-02-07 10:42:00,63.0,61.0,29.85,NE,42,1.0,4.0,92,0.00,,,0.86,,2013-02-07 10:42:00,
2013-02-07 10:52:00,64.0,62.0,29.86,NNE,30,1.0,4.0,92,0.00,,,0.86,,2013-02-07 10:52:00,
2013-02-07 11:01:00,64.0,62.0,29.86,NNE,24,1.0,3.0,93,0.00,,,0.86,,2013-02-07 11:01:00,
2013-02-07 11:11:00,64.0,62.0,29.86,NNE,24,1.0,3.0,93,0.00,,,0.86,,2013-02-07 11:11:00,
2013-02-07 11:22:00,64.0,62.0,29.87,NNW,342,2.0,4.0,93,0.00,,,0.86,,2013-02-07 11:22:00,
2013-02-07 11:32:00,64.0,62.0,29.87,NNW,337,3.0,5.0,93,0.00,,,0.86,,2013-02-07 11:32:00,
2013-02-07 11:44:00,64.0,62.0,29.87,NNW,337,3.0,5.0,93,0.00,,,0.86,,2013-02-07 11:44:00,
2013-02-07 11:52:00,64.0,62.0,29.88,NNW,342,1.0,2.0,93,0.00,,,0.86,,2013-02-07 11:52:00,
2013-02-07 12:02:00,64.0,62.0,29.88,NNW,342,0.0,2.0,93,0.00,,,0.86,,2013-02-07 12:02:00,
2013-02-07 12:11:00,64.0,62.0,29.88,NNW,342,0.0,2.0,93,0.00,,,0.86,,2013-02-07 12:11:00,
2013-02-07 12:22:00,64.0,62.0,29.89,NNW,340,2.0,3.0,93,0.00,,,0.86,,2013-02-07 12:22:00,
2013-02-07 12:32:00,64.0,62.0,29.89,NNW,338,0.0,6.0,93,0.00,,,0.86,,2013-02-07 12:32:00,
2013-02-07 12:42:00,64.0,62.0,29.89,NNW,338,0.0,6.0,93,0.00,,,0.86,,2013-02-07 12:42:00,
2013-02-07 12:53:00,64.0,62.0,29.89,North,9,0.0,3.0,93,0.00,,,0.86,,2013-02-07 12:53:00,
2013-02-07 13:02:00,64.0,62.0,29.90,North,9,0.0,1.0,93,0.00,,,0.86,,2013-02-07 13:02:00,
2013-02-07 13:12:00,64.0,62.0,29.90,North,9,0.0,1.0,93,0.00,,,0.86,,2013-02-07 13:12:00,
2013-02-07 13:22:00,64.0,62.0,29.91,North,9,0.0,2.0,93,0.00,,,0.86,,2013-02-07 13:22:00,
2013-02-07 13:32:00,64.0,62.0,29.91,North,9,0.0,2.0,92,0.00,,,0.86,,2013-02-07 13:32:00,
2013-02-07 13:42:00,64.0,62.0,29.91,North,9,0.0,2.0,92,0.00,,,0.86,,2013-02-07 13:42:00,
2013-02-07 13:52:00,64.0,62.0,29.91,North,5,1.0,3.0,92,0.00,,,0.86,,2013-02-07 13:52:00,
2013-02-07 14:01:00,64.0,62.0,29.92,North,5,0.0,1.0,92,0.00,,,0.86,,2013-02-07 14:01:00,
2013-02-07 14:11:00,64.0,62.0,29.92,North,5,0.0,1.0,92,0.00,,,0.86,,2013-02-07 14:11:00,
2013-02-07 14:21:00,64.0,62.0,29.93,NNW,346,2.0,3.0,92,0.00,,,0.86,,2013-02-07 14:21:00,
2013-02-07 14:32:00,64.0,62.0,29.93,NNW,340,1.0,3.0,92,0.00,,,0.86,,2013-02-07 14:32:00,
2013-02-07 14:42:00,64.0,62.0,29.93,NNW,340,1.0,3.0,92,0.00,,,0.86,,2013-02-07 14:42:00,
2013-02-07 14:52:00,64.0,62.0,29.94,WSW,256,2.0,4.0,92,0.00,,,0.86,,2013-02-07 14:52:00,
2013-02-07 15:01:00,64.0,62.0,29.94,WSW,251,0.0,2.0,92,0.00,,,0.86,,2013-02-07 15:01:00,
2013-02-07 15:11:00,64.0,62.0,29.94,WSW,251,0.0,2.0,92,0.00,,,0.86,,2013-02-07 15:11:00,
2013-02-07 15:22:00,64.0,62.0,29.95,West,265,4.0,5.0,92,0.00,,,0.86,,2013-02-07 15:22:00,
2013-02-07 15:32:00,64.0,62.0,29.94,West,264,1.0,3.0,92,0.00,,,0.86,,2013-02-07 15:32:00,
2013-02-07 15:42:00,64.0,62.0,29.94,West,264,1.0,3.0,92,0.00,,,0.86,,2013-02-07 15:42:00,
2013-02-07 15:52:00,65.0,63.0,29.95,NW,321,3.0,5.0,92,0.00,,,0.86,,2013-02-07 15:52:00,
2013-02-07 16:01:00,65.0,63.0,29.95,North,9,1.0,4.0,92,0.00,,,0.86,,2013-02-07 16:01:00,
2013-02-07 16:11:00,65.0,63.0,29.95,North,9,1.0,4.0,92,0.00,,,0.86,,2013-02-07 16:11:00,
2013-02-07 16:21:00,66.0,64.0,29.95,NNE,30,3.0,5.0,92,0.00,,,0.85,,2013-02-07 16:21:00,
2013-02-07 16:32:00,66.0,64.0,29.95,North,355,2.0,6.0,92,0.00,,,0.85,,2013-02-07 16:32:00,
2013-02-07 16:41:00,66.0,64.0,29.95,North,355,2.0,6.0,92,0.00,,,0.85,,2013-02-07 16:41:00,
2013-02-07 16:52:00,66.0,63.0,29.95,NNW,340,4.0,6.0,91,0.00,,,0.85,,2013-02-07 16:52:00,
2013-02-07 17:01:00,66.0,63.0,29.95,NNW,337,3.0,6.0,91,0.00,,,0.85,,2013-02-07 17:01:00,
2013-02-07 17:11:00,67.0,64.0,29.94,NE,47,3.0,6.0,90,0.00,,,0.85,,2013-02-07 17:11:00,
2013-02-07 17:21:00,67.0,64.0,29.94,NE,47,3.0,6.0,90,0.00,,,0.85,,2013-02-07 17:21:00,
2013-02-07 17:31:00,67.0,64.0,29.94,North,5,4.0,6.0,90,0.00,,,0.85,,2013-02-07 17:31:00,
2013-02-07 17:42:00,67.0,64.0,29.94,North,5,4.0,6.0,90,0.00,,,0.85,,2013-02-07 17:42:00,
2013-02-07 17:52:00,68.0,65.0,29.94,NNE,26,3.0,5.0,89,0.00,,,0.85,,2013-02-07 17:52:00,
2013-02-07 18:01:00,68.0,65.0,29.93,NNW,348,2.0,6.0,89,0.00,,,0.85,,2013-02-07 18:01:00,
2013-02-07 18:23:00,69.0,65.0,29.93,NW,325,2.0,5.0,87,0.00,,,0.85,,2013-02-07 18:23:00,
2013-02-07 18:31:00,69.0,65.0,29.93,North,9,4.0,6.0,87,0.00,,,0.85,,2013-02-07 18:31:00,
2013-02-07 18:41:00,69.0,65.0,29.93,North,9,4.0,6.0,87,0.00,,,0.85,,2013-02-07 18:41:00,
2013-02-07 18:52:00,69.0,65.0,29.93,NW,325,1.0,3.0,87,0.00,,,0.85,,2013-02-07 18:52:00,
2013-02-07 19:01:00,69.0,65.0,29.93,WNW,296,3.0,5.0,86,0.00,,,0.85,,2013-02-07 19:01:00,
2013-02-07 19:11:00,70.0,66.0,29.92,NNW,327,1.0,5.0,86,0.00,,,0.84,,2013-02-07 19:11:00,
2013-02-07 19:22:00,70.0,66.0,29.92,NNW,327,1.0,5.0,86,0.00,,,0.84,,2013-02-07 19:22:00,
2013-02-07 19:31:00,70.0,65.0,29.91,NNE,19,3.0,5.0,85,0.00,,,0.84,,2013-02-07 19:31:00,
2013-02-07 19:41:00,70.0,65.0,29.91,NNE,19,3.0,5.0,85,0.00,,,0.84,,2013-02-07 19:41:00,
2013-02-07 19:52:00,71.0,66.0,29.91,NNW,336,4.0,7.0,83,0.00,,,0.84,,2013-02-07 19:52:00,
2013-02-07 20:01:00,71.0,65.0,29.91,NNE,18,2.0,5.0,82,0.00,,,0.84,,2013-02-07 20:01:00,
2013-02-07 20:11:00,71.0,65.0,29.91,NNE,18,2.0,5.0,82,0.00,,,0.84,,2013-02-07 20:11:00,
2013-02-07 20:22:00,71.0,66.0,29.90,North,350,1.0,4.0,83,0.00,,,0.84,,2013-02-07 20:22:00,
2013-02-07 20:31:00,72.0,66.0,29.90,NNW,346,2.0,4.0,81,0.00,,,0.84,,2013-02-07 20:31:00,
2013-02-07 20:41:00,72.0,66.0,29.90,NNW,346,2.0,4.0,81,0.00,,,0.84,,2013-02-07 20:41:00,
2013-02-07 20:52:00,72.0,65.0,29.90,NNE,14,3.0,4.0,80,0.00,,,0.84,,2013-02-07 20:52:00,
2013-02-07 21:01:00,73.0,66.0,29.90,NW,317,1.0,4.0,79,0.00,,,0.84,,2013-02-07 21:01:00,
2013-02-07 21:21:00,73.0,66.0,29.89,NNW,336,1.0,4.0,80,0.00,,,0.84,,2013-02-07 21:21:00,
2013-02-07 21:31:00,74.0,67.0,29.89,NW,319,1.0,4.0,78,0.00,,,0.84,,2013-02-07 21:31:00,
2013-02-07 21:42:00,74.0,67.0,29.89,NW,319,1.0,4.0,78,0.00,,,0.84,,2013-02-07 21:42:00,
2013-02-07 21:52:00,74.0,67.0,29.89,West,274,0.0,0.0,78,0.00,,,0.84,,2013-02-07 21:52:00,
2013-02-07 22:02:00,74.0,66.0,29.88,South,169,1.0,2.0,76,0.00,,,0.84,,2013-02-07 22:02:00,
2013-02-07 22:11:00,74.0,66.0,29.88,SE,136,2.0,4.0,75,0.00,,,0.72,,2013-02-07 22:11:00,
2013-02-07 22:21:00,74.0,66.0,29.88,SE,136,2.0,4.0,75,0.00,,,0.72,,2013-02-07 22:21:00,
2013-02-07 22:31:00,74.0,66.0,29.88,South,172,0.0,3.0,76,0.00,,,0.72,,2013-02-07 22:31:00,
2013-02-07 22:42:00,74.0,66.0,29.88,South,172,0.0,3.0,76,0.00,,,0.72,,2013-02-07 22:42:00,
2013-02-07 22:52:00,75.0,66.0,29.88,SSE,160,1.0,3.0,74,0.00,,,0.72,,2013-02-07 22:52:00,
2013-02-07 23:01:00,75.0,67.0,29.88,SSW,212,1.0,4.0,75,0.00,,,0.72,,2013-02-07 23:01:00,
2013-02-07 23:21:00,74.0,66.0,29.88,SSW,199,1.0,2.0,77,0.00,,,0.63,,2013-02-07 23:21:00,
2013-02-07 23:32:00,74.0,66.0,29.89,SW,217,1.0,4.0,77,0.00,,,0.63,,2013-02-07 23:32:00,
2013-02-07 23:41:00,74.0,66.0,29.89,SW,217,1.0,4.0,77,0.00,,,0.63,,2013-02-07 23:41:00,
2013-02-07 23:52:00,72.0,66.0,29.90,SSW,209,2.0,4.0,81,0.00,,,0.63,,2013-02-07 23:52:00,